Potter, NE

6:13 PM MDT on July 07, 2015 (GMT -0600)
Panhandle Coop-Dalton | | Change Station
CLOSE
Current Station
Personal Weather Station
Location: Dalton, NE
Elevation: 4321 ft
Nearby Weather Stations

Elev 4321 ft 41.35 °N, 103.03 °W | Updated 13 minutes ago

Overcast
Overcast
65.6 °F
Feels Like 65.6 °F
N
13.0
Wind Variable Wind from ENE
Gusts 17.0 mph

Today
High -- | Low -- °F
--% Chance of Precip.
Yesterday
High -- | Low -- °F
Precip. -- in
5:27 AM 8:28 PM
Waning Gibbous, 60% visible
Pressure 30.01 in
Visibility 8.0 miles
Clouds Overcast 7000 ft
Dew Point 52 °F
Humidity 61%
Rainfall 0.00 in
Snow Depth Not available.
UV 1 out of 12
Pollen 4.80 out of 12
Air Quality Not available.
Flu Activity Not available.
METAR KSNY 072353Z AUTO 14014G20KT 8SM OVC070 21/09 A3011 RMK AO2 SLP160 T02110089 10228 20200 58013

More Conditions Fewer Conditions

Pressure 30.01 in
Visibility 8.0 miles
Clouds Overcast 7000 ft
Dew Point 52 °F
Humidity 61%
Rainfall 0.00 in
Snow Depth Not available.
UV 1 out of 12
Pollen 4.80 out of 12
Air Quality Not available.
Flu Activity Not available.
METAR KSNY 072353Z AUTO 14014G20KT 8SM OVC070 21/09 A3011 RMK AO2 SLP160 T02110089 10228 20200 58013

More Conditions Fewer Conditions

10-Day Weather Forecast

×

Almanac

Astronomy

Jul. 07, 2015 Rise Set
Actual Time
Civil Twilight
Nautical Twilight
Astronomical Twilight
Moon
Length of Visible Light
Length of Day
Tomorrow will be .
, % of the Moon is Illuminated

Today's Extremes

State Highs State Lows

Community

WunderPhotos

Upload Photos

1,835,970 photos uploaded!

WunderBlogs® & News

Nearby

Air Quality

  Air Quality AQ Index Pollutant
Not available.

Snow Depth

Station Depth Elevation

Earthquake Activity

City Distance Mag. Time & Date
Minimum magnitude displayed is 2.5.

Coastal Water Temperatures

Place Temperature

Stations

Nearby Weather Stations

Station Location Temp. Windchill Dew Point Humidity Wind Precip. Elev Updated Type